Time;durP1;ratioP1;P1;durP2;ratioP2;P2;SDS_P1;SDS_P2;PMS_P1;PMS_P2;Temp;Humidity;BMP_temperature;BMP_pressure;BME280_temperature;BME280_humidity;BME280_pressure;Samples;Min_cycle;Max_cycle;Signal;HPM_P1;HPM_P2
2021/10/03 00:00:12;;;;;;;;;4.00;4.00;;;;;19.39;71.77;99058.66;2091254;28;47297;-47
2021/10/03 00:01:13;;;;;;;;;4.00;3.25;;;;;19.40;71.73;99065.75;2091414;28;46861;-49
2021/10/03 00:02:15;;;;;;;;;3.00;3.00;;;;;19.40;71.61;99064.91;2092174;28;47222;-48
2021/10/03 00:03:23;;;;;;;;;3.00;3.00;;;;;19.41;71.24;99069.31;2091573;28;47496;-48
2021/10/03 00:04:28;;;;;;;;;5.25;4.75;;;;;19.40;71.46;99055.00;2091906;28;48762;-48
2021/10/03 00:05:28;;;;;;;;;4.00;4.00;;;;;19.40;71.49;99057.69;2091862;28;48463;-50
2021/10/03 00:06:29;;;;;;;;;4.33;3.33;;;;;19.40;71.19;99055.00;2089354;28;46700;-48
2021/10/03 00:07:31;;;;;;;;;3.00;2.75;;;;;19.40;70.90;99041.53;2087969;28;48663;-52
2021/10/03 00:08:31;;;;;;;;;3.50;3.50;;;;;19.41;71.51;99055.84;2091901;28;48454;-51
2021/10/03 00:09:32;;;;;;;;;4.00;4.00;;;;;19.40;71.25;99048.75;2091447;28;47902;-47
2021/10/03 00:10:33;;;;;;;;;2.67;2.67;;;;;19.41;71.28;99043.25;2092099;28;48494;-46
2021/10/03 00:11:34;;;;;;;;;3.75;3.75;;;;;19.41;71.46;99051.31;2091571;28;46616;-50
2021/10/03 00:12:34;;;;;;;;;3.00;3.00;;;;;19.41;71.16;99037.88;2091989;28;47964;-52
2021/10/03 00:13:35;;;;;;;;;4.00;4.00;;;;;19.41;71.75;99043.25;2091871;28;45371;-47
2021/10/03 00:14:36;;;;;;;;;3.25;3.25;;;;;19.42;71.19;99044.09;2091943;28;47225;-50
2021/10/03 00:15:38;;;;;;;;;3.33;3.33;;;;;19.42;71.15;99031.50;2091196;28;47509;-46
2021/10/03 00:16:40;;;;;;;;;3.00;3.00;;;;;19.43;71.24;99037.75;2092257;28;48281;-51
2021/10/03 00:17:41;;;;;;;;;5.25;4.25;;;;;19.44;71.50;99041.28;2091536;28;47600;-49
2021/10/03 00:18:42;;;;;;;;;3.00;3.00;;;;;19.43;71.65;99051.19;2092877;28;47308;-51
2021/10/03 00:19:42;;;;;;;;;3.00;3.00;;;;;19.44;71.36;99034.09;2091181;28;47235;-47
2021/10/03 00:20:43;;;;;;;;;3.00;3.00;;;;;19.44;71.48;99026.03;2092043;28;46864;-46
2021/10/03 00:21:44;;;;;;;;;3.33;3.33;;;;;19.45;71.22;99032.25;2091632;28;47749;-50
2021/10/03 00:22:45;;;;;;;;;2.67;2.67;;;;;19.44;71.58;99031.41;2091876;28;47550;-51
2021/10/03 00:23:45;;;;;;;;;4.50;4.50;;;;;19.44;71.49;99025.13;2091626;28;46171;-49
2021/10/03 00:24:46;;;;;;;;;5.00;4.33;;;;;19.44;71.31;99017.06;2091113;28;47303;-47
2021/10/03 00:25:47;;;;;;;;;4.00;3.00;;;;;19.45;71.50;99037.63;2091400;28;48072;-45
2021/10/03 00:26:48;;;;;;;;;3.75;3.75;;;;;19.44;71.58;99023.34;2091277;28;47211;-47
2021/10/03 00:27:48;;;;;;;;;3.00;3.00;;;;;19.45;71.28;99024.19;2082554;28;47065;-47
2021/10/03 00:28:49;;;;;;;;;2.00;2.00;;;;;19.45;71.46;99026.88;2091160;28;47868;-47
2021/10/03 00:29:49;;;;;;;;;5.33;4.33;;;;;19.45;71.30;99026.88;2091753;28;48281;-46
2021/10/03 00:30:50;;;;;;;;;3.50;3.50;;;;;19.45;71.45;99021.50;2091500;28;47356;-48
2021/10/03 00:31:52;;;;;;;;;2.33;2.33;;;;;19.45;71.45;99027.72;2096143;28;47051;-46
2021/10/03 00:32:53;;;;;;;;;4.75;4.00;;;;;19.45;71.13;99027.72;2091381;28;47497;-47
2021/10/03 00:33:53;;;;;;;;;5.50;4.00;;;;;19.46;71.09;99012.44;2091264;28;46298;-48
2021/10/03 00:34:54;;;;;;;;;5.00;5.00;;;;;19.46;71.51;99020.50;2091799;28;48126;-50
2021/10/03 00:35:54;;;;;;;;;5.00;5.00;;;;;19.46;70.82;99018.66;2091634;28;47434;-50
2021/10/03 00:36:55;;;;;;;;;4.33;4.33;;;;;19.46;71.11;99015.13;2090065;28;46426;-50
2021/10/03 00:37:55;;;;;;;;;6.00;4.00;;;;;19.46;70.93;99020.50;2087316;28;47149;-50
2021/10/03 00:38:56;;;;;;;;;4.00;3.67;;;;;19.45;70.98;99014.28;2091744;28;47807;-48
2021/10/03 00:39:56;;;;;;;;;4.00;4.00;;;;;19.47;71.06;99011.44;2091676;28;48335;-47
2021/10/03 00:40:58;;;;;;;;;3.00;3.00;;;;;19.46;71.00;99013.28;2091514;28;48523;-48
2021/10/03 00:41:59;;;;;;;;;5.00;5.00;;;;;19.46;70.92;99018.66;2091557;28;47124;-47
2021/10/03 00:43:01;;;;;;;;;4.67;4.67;;;;;19.45;70.92;99014.28;2091667;28;48525;-46
2021/10/03 00:44:02;;;;;;;;;4.25;4.25;;;;;19.44;71.22;99009.88;2091666;28;48341;-46
2021/10/03 00:45:04;;;;;;;;;8.00;6.67;;;;;19.45;71.01;99010.72;2091537;28;48316;-48
2021/10/03 00:46:05;;;;;;;;;5.50;5.50;;;;;19.46;71.07;99002.53;2092463;28;48295;-51
2021/10/03 00:47:06;;;;;;;;;4.25;4.25;;;;;19.46;71.46;99010.59;2090765;28;46891;-47
2021/10/03 00:48:07;;;;;;;;;5.00;5.00;;;;;19.47;71.30;99011.44;2099528;28;48165;-47
2021/10/03 00:49:08;;;;;;;;;5.00;5.00;;;;;19.47;71.20;99001.53;2083173;28;47834;-46
2021/10/03 00:50:13;;;;;;;;;4.67;4.67;;;;;19.47;70.85;99001.53;2089212;28;45412;-50
2021/10/03 00:51:14;;;;;;;;;5.25;5.25;;;;;19.47;71.18;98998.84;2091460;28;46493;-48
2021/10/03 00:52:14;;;;;;;;;4.00;4.00;;;;;19.47;71.33;98985.41;2091698;28;48238;-48
2021/10/03 00:53:15;;;;;;;;;4.33;4.33;;;;;19.48;70.96;98989.78;2090564;28;47794;-47
2021/10/03 00:54:16;;;;;;;;;4.00;4.00;;;;;19.48;70.79;98987.09;2091150;28;46974;-47
2021/10/03 00:55:17;;;;;;;;;6.33;5.33;;;;;19.48;71.01;98997.00;2084677;28;46603;-49
2021/10/03 00:56:18;;;;;;;;;6.00;5.00;;;;;19.48;71.10;98987.09;2075616;28;46792;-49
2021/10/03 00:57:19;;;;;;;;;3.67;3.67;;;;;19.49;70.93;98990.66;2090809;28;46713;-51
2021/10/03 00:58:20;;;;;;;;;4.33;4.33;;;;;19.49;70.93;98998.72;2087847;28;47107;-46
2021/10/03 00:59:20;;;;;;;;;5.25;5.25;;;;;19.48;71.40;98989.78;2091496;28;47113;-46
2021/10/03 01:00:25;;;;;;;;;4.00;4.00;;;;;19.48;71.19;98997.00;2091405;28;48153;-47
2021/10/03 01:01:26;;;;;;;;;4.00;4.00;;;;;19.49;71.37;98987.94;2091220;28;47271;-48
2021/10/03 01:02:27;;;;;;;;;4.75;4.75;;;;;19.49;70.97;98982.56;2091833;28;47537;-49
2021/10/03 01:03:27;;;;;;;;;2.00;2.00;;;;;19.48;71.24;98989.78;2090554;28;47213;-48
2021/10/03 01:04:28;;;;;;;;;3.67;3.67;;;;;19.49;71.08;98998.72;2089462;28;45374;-47
2021/10/03 01:05:29;;;;;;;;;3.33;3.33;;;;;19.48;70.87;98992.47;2083010;28;48286;-49
2021/10/03 01:06:29;;;;;;;;;4.75;4.75;;;;;19.47;71.06;98990.78;2088551;28;47153;-46
2021/10/03 01:07:30;;;;;;;;;5.00;5.00;;;;;19.47;71.01;98985.41;2090757;28;46346;-51
2021/10/03 01:08:30;;;;;;;;;6.00;6.00;;;;;19.48;70.95;98983.56;2090932;28;47403;-49
2021/10/03 01:09:31;;;;;;;;;4.33;4.33;;;;;19.48;71.29;98991.63;2091315;28;47561;-49
2021/10/03 01:10:32;;;;;;;;;4.33;4.33;;;;;19.47;71.27;98974.63;2091832;28;47266;-49
2021/10/03 01:11:33;;;;;;;;;5.00;5.00;;;;;19.48;71.10;98991.63;2089930;28;47113;-46
2021/10/03 01:12:34;;;;;;;;;5.67;5.33;;;;;19.48;71.34;98983.56;2091612;28;47361;-47
2021/10/03 01:13:35;;;;;;;;;4.75;3.00;;;;;19.48;71.32;98980.88;2091372;28;47286;-50
2021/10/03 01:14:35;;;;;;;;;5.67;5.67;;;;;19.48;71.44;98975.50;2090911;28;47257;-47
2021/10/03 01:15:40;;;;;;;;;7.00;5.00;;;;;19.47;71.14;98980.00;2090370;28;46994;-48
2021/10/03 01:16:41;;;;;;;;;5.00;5.00;;;;;19.47;71.15;98976.47;2090869;28;48025;-46
2021/10/03 01:17:41;;;;;;;;;7.00;6.00;;;;;19.47;71.05;98965.72;2082371;28;47075;-47
2021/10/03 01:18:42;;;;;;;;;5.33;5.33;;;;;19.48;71.27;98970.09;2091016;28;46645;-45
2021/10/03 01:19:43;;;;;;;;;6.25;6.25;;;;;19.48;71.08;98975.50;2090653;28;47084;-47
2021/10/03 01:20:43;;;;;;;;;5.33;5.33;;;;;19.47;71.30;98950.44;2090659;28;47331;-46
2021/10/03 01:21:46;;;;;;;;;3.67;3.67;;;;;19.48;71.32;98959.34;2091275;28;47569;-49
2021/10/03 01:22:46;;;;;;;;;6.00;6.00;;;;;19.47;71.19;98960.34;2091049;28;48488;-48
2021/10/03 01:23:47;;;;;;;;;7.67;5.67;;;;;19.48;71.14;98956.66;2091123;28;48642;-48
2021/10/03 01:24:47;;;;;;;;;6.33;6.33;;;;;19.48;71.13;98954.81;2091387;28;48363;-50
2021/10/03 01:25:50;;;;;;;;;6.67;6.67;;;;;19.47;71.22;98961.19;2091150;28;47016;-48
2021/10/03 01:26:51;;;;;;;;;7.00;5.75;;;;;19.48;71.04;98959.34;2091342;28;48459;-49
2021/10/03 01:27:51;;;;;;;;;5.00;5.00;;;;;19.47;71.15;98960.34;2091289;28;45280;-46
2021/10/03 01:28:54;;;;;;;;;8.00;7.33;;;;;19.47;71.15;98941.50;2091077;28;48073;-49
2021/10/03 01:29:55;;;;;;;;;5.00;5.00;;;;;19.47;71.06;98950.44;2091467;28;45497;-47
2021/10/03 01:30:56;;;;;;;;;4.00;4.00;;;;;19.48;71.04;98951.28;2091102;28;46985;-44
2021/10/03 01:31:57;;;;;;;;;5.00;5.00;;;;;19.47;71.12;98944.19;2090914;28;47324;-46
2021/10/03 01:32:57;;;;;;;;;5.25;5.00;;;;;19.48;71.16;98953.97;2090934;28;47368;-46
2021/10/03 01:33:59;;;;;;;;;5.00;4.67;;;;;19.47;71.28;98941.50;2082203;28;46006;-48
2021/10/03 01:34:59;;;;;;;;;5.00;5.00;;;;;19.48;71.22;98946.75;2084020;28;47429;-47
2021/10/03 01:36:00;;;;;;;;;6.33;5.33;;;;;19.47;71.39;98931.59;2091183;28;48377;-45
2021/10/03 01:37:00;;;;;;;;;5.00;5.00;;;;;19.47;71.50;98949.56;2091182;28;48110;-51
2021/10/03 01:38:01;;;;;;;;;6.33;6.33;;;;;19.47;71.31;98949.56;2091082;28;47349;-51
2021/10/03 01:39:02;;;;;;;;;5.00;5.00;;;;;19.47;71.62;98941.50;2084900;28;47598;-46
2021/10/03 01:40:06;;;;;;;;;5.50;5.50;;;;;19.47;71.50;98936.13;2090615;28;47307;-45
2021/10/03 01:41:07;;;;;;;;;5.00;5.00;;;;;19.45;71.00;98930.88;2082657;28;47318;-46
2021/10/03 01:42:08;;;;;;;;;5.00;5.00;;;;;19.46;71.44;98929.88;2090718;28;46959;-48
2021/10/03 01:43:09;;;;;;;;;5.33;5.33;;;;;19.46;71.45;98934.41;2091002;28;48323;-47
2021/10/03 01:44:09;;;;;;;;;4.50;4.00;;;;;19.45;71.49;98924.66;2091523;28;45893;-47
2021/10/03 01:45:13;;;;;;;;;5.67;5.00;;;;;19.45;71.19;98925.50;2090295;28;46333;-48
2021/10/03 01:46:14;;;;;;;;;5.00;5.00;;;;;19.45;71.52;98922.81;2092313;28;47384;-49
2021/10/03 01:47:14;;;;;;;;;4.00;3.33;;;;;19.45;71.42;98922.81;2091025;28;47191;-48
2021/10/03 01:48:18;;;;;;;;;6.33;5.00;;;;;19.46;71.23;98916.44;2091427;28;48038;-49
2021/10/03 01:49:19;;;;;;;;;6.00;6.00;;;;;19.44;71.31;98921.09;2091034;28;48352;-49
2021/10/03 01:50:19;;;;;;;;;5.33;4.33;;;;;19.46;71.07;98923.66;2095634;28;47531;-49
2021/10/03 01:51:20;;;;;;;;;4.33;4.33;;;;;19.46;71.54;98912.91;2091174;28;48358;-46
2021/10/03 01:52:21;;;;;;;;;5.33;5.33;;;;;19.46;71.23;98918.28;2091281;28;48164;-48
2021/10/03 01:53:24;;;;;;;;;5.00;5.00;;;;;19.46;71.12;98926.34;2090888;28;47277;-46
2021/10/03 01:54:24;;;;;;;;;5.75;5.75;;;;;19.46;71.52;98926.34;2091337;28;47316;-44
2021/10/03 01:55:25;;;;;;;;;5.67;5.67;;;;;19.46;70.96;98912.91;2090161;28;47240;-48
2021/10/03 01:56:27;;;;;;;;;5.00;5.00;;;;;19.45;71.13;98909.34;2090608;28;47485;-46
2021/10/03 01:57:28;;;;;;;;;4.50;4.50;;;;;19.45;71.53;98909.34;2090848;28;47353;-47
2021/10/03 01:58:31;;;;;;;;;6.00;5.00;;;;;19.46;71.27;98912.91;2091332;28;47294;-46
2021/10/03 01:59:32;;;;;;;;;5.25;5.25;;;;;19.45;71.34;98911.19;2091005;28;48289;-49
2021/10/03 02:00:32;;;;;;;;;7.00;6.00;;;;;19.46;71.21;98907.50;2091042;28;47243;-46
2021/10/03 02:01:42;;;;;;;;;6.67;6.67;;;;;19.45;70.91;98905.81;2091039;28;47335;-45
2021/10/03 02:02:45;;;;;;;;;7.00;7.00;;;;;19.45;71.06;98903.97;2091255;28;46634;-46
2021/10/03 02:03:46;;;;;;;;;4.75;4.75;;;;;19.46;70.93;98912.91;2090938;28;48527;-46
2021/10/03 02:04:46;;;;;;;;;6.00;5.00;;;;;19.46;71.13;98902.13;2091251;28;45422;-49
2021/10/03 02:05:47;;;;;;;;;5.33;4.67;;;;;19.46;70.91;98907.50;2090947;28;47264;-49
2021/10/03 02:06:55;;;;;;;;;5.00;5.00;;;;;19.46;70.71;98899.44;2091157;28;47448;-46
2021/10/03 02:07:55;;;;;;;;;5.00;5.00;;;;;19.46;71.00;98894.06;2087661;28;48285;-47
2021/10/03 02:08:57;;;;;;;;;4.33;4.33;;;;;19.45;71.07;98893.22;2090906;28;47985;-45
2021/10/03 02:09:58;;;;;;;;;5.25;5.00;;;;;19.44;71.00;98888.81;2091234;28;47587;-46
2021/10/03 02:11:01;;;;;;;;;5.00;4.50;;;;;19.46;70.97;98883.31;2091139;28;47372;-47
2021/10/03 02:12:01;;;;;;;;;8.00;6.50;;;;;19.45;70.90;98879.75;2091074;28;47179;-45
2021/10/03 02:13:04;;;;;;;;;8.67;7.00;;;;;19.46;71.29;98877.94;2082134;28;47841;-47
2021/10/03 02:14:04;;;;;;;;;5.75;5.75;;;;;19.45;71.01;98871.69;2074481;28;46959;-45
2021/10/03 02:15:05;;;;;;;;;8.00;7.00;;;;;19.44;70.75;98864.63;2082247;28;45326;-47
2021/10/03 02:16:05;;;;;;;;;7.25;7.00;;;;;19.44;71.25;98864.63;2088800;28;48435;-45
2021/10/03 02:17:06;;;;;;;;;4.33;4.33;;;;;19.43;71.08;98862.88;2090903;28;48060;-46
2021/10/03 02:18:09;;;;;;;;;8.67;7.00;;;;;19.44;70.86;98864.63;2091260;28;46306;-46
2021/10/03 02:19:10;;;;;;;;;5.50;5.50;;;;;19.44;71.21;98870.00;2095313;28;47724;-45
2021/10/03 02:20:11;;;;;;;;;3.25;3.25;;;;;19.44;70.94;98869.09;2099775;27;45535;-45
2021/10/03 02:21:13;;;;;;;;;5.00;5.00;;;;;19.42;70.92;98880.84;2090090;28;47897;-47
2021/10/03 02:22:14;;;;;;;;;5.25;5.25;;;;;19.41;70.87;98854.94;2082172;28;48425;-45
2021/10/03 02:23:15;;;;;;;;;8.00;7.50;;;;;19.42;71.07;98861.19;2081951;28;47298;-46
2021/10/03 02:24:15;;;;;;;;;4.67;4.67;;;;;19.42;70.80;98859.34;2083415;28;47005;-46
2021/10/03 02:25:16;;;;;;;;;6.67;5.00;;;;;19.42;70.95;98845.88;2084696;28;47253;-45
2021/10/03 02:26:17;;;;;;;;;5.50;5.50;;;;;19.41;70.93;98844.19;2091273;28;47539;-45
2021/10/03 02:27:17;;;;;;;;;5.00;4.00;;;;;19.41;71.05;98843.34;2090708;28;47286;-45
2021/10/03 02:28:23;;;;;;;;;8.00;7.00;;;;;19.41;71.09;98857.63;2091022;28;47074;-46
2021/10/03 02:29:24;;;;;;;;;6.50;6.50;;;;;19.41;71.22;98840.66;2090347;28;48675;-47
2021/10/03 02:30:24;;;;;;;;;6.33;6.33;;;;;19.41;71.13;98840.66;2090393;28;47040;-44
2021/10/03 02:31:25;;;;;;;;;5.00;5.00;;;;;19.39;70.96;98832.72;2090307;28;47290;-47
2021/10/03 02:32:26;;;;;;;;;6.00;5.50;;;;;19.40;70.95;98831.72;2091146;28;48083;-46
2021/10/03 02:33:26;;;;;;;;;5.00;5.00;;;;;19.40;70.98;98841.63;2090185;28;47371;-50
2021/10/03 02:34:27;;;;;;;;;5.00;5.00;;;;;19.40;70.66;98830.88;2090793;28;48126;-50
2021/10/03 02:35:27;;;;;;;;;7.67;6.67;;;;;19.40;70.79;98839.78;2090750;28;47979;-47
2021/10/03 02:36:28;;;;;;;;;4.67;4.67;;;;;19.40;71.01;98836.25;2090525;28;47395;-47
2021/10/03 02:37:28;;;;;;;;;4.33;4.33;;;;;19.40;70.94;98829.03;2090213;28;46233;-46
2021/10/03 02:38:30;;;;;;;;;5.33;5.00;;;;;19.41;71.14;98824.50;2088522;28;48068;-50
2021/10/03 02:39:30;;;;;;;;;5.25;5.25;;;;;19.42;71.04;98823.50;2090763;28;48528;-50
2021/10/03 02:40:31;;;;;;;;;5.33;5.33;;;;;19.41;70.69;98828.03;2091253;28;48283;-48
2021/10/03 02:41:33;;;;;;;;;7.75;7.25;;;;;19.41;71.12;98837.97;2090688;28;47332;-51
2021/10/03 02:42:34;;;;;;;;;6.50;6.50;;;;;19.41;70.59;98832.56;2090276;28;47216;-49
2021/10/03 02:43:38;;;;;;;;;5.25;4.50;;;;;19.41;70.81;98844.19;2082033;28;47827;-47
2021/10/03 02:44:39;;;;;;;;;6.00;5.50;;;;;19.41;70.64;98819.13;2090469;28;47063;-47
2021/10/03 02:45:44;;;;;;;;;7.00;6.00;;;;;19.40;70.91;98838.94;2092314;28;46783;-50
2021/10/03 02:46:45;;;;;;;;;6.25;6.25;;;;;19.39;71.19;98821.94;2082962;28;47484;-46
2021/10/03 02:47:45;;;;;;;;;5.00;5.00;;;;;19.39;70.94;98827.34;2086641;28;45500;-47
2021/10/03 02:48:50;;;;;;;;;6.00;5.33;;;;;19.38;70.96;98822.09;2092592;28;47357;-47
2021/10/03 02:49:51;;;;;;;;;6.00;6.00;;;;;19.39;70.78;98829.19;2094649;27;47326;-49
2021/10/03 02:50:52;;;;;;;;;6.00;5.67;;;;;19.38;71.19;98822.09;2098053;28;45389;-49
2021/10/03 02:51:53;;;;;;;;;5.75;5.25;;;;;19.38;71.19;98819.41;2083260;28;47214;-51
2021/10/03 02:52:53;;;;;;;;;5.67;5.67;;;;;19.37;71.16;98823.09;2089999;28;48179;-48
2021/10/03 02:53:56;;;;;;;;;5.00;5.00;;;;;19.37;70.66;98820.38;2092171;28;48155;-49
2021/10/03 02:54:56;;;;;;;;;6.75;6.75;;;;;19.36;71.06;98819.53;2092673;28;47509;-48
2021/10/03 02:55:57;;;;;;;;;5.67;5.33;;;;;19.37;71.06;98815.00;2092109;28;47368;-51
2021/10/03 02:56:58;;;;;;;;;6.33;5.33;;;;;19.37;70.55;98801.56;2083604;28;48308;-47
2021/10/03 02:57:58;;;;;;;;;8.00;7.00;;;;;19.36;71.00;98808.78;2083258;28;47117;-48
2021/10/03 02:58:59;;;;;;;;;7.00;7.00;;;;;19.36;70.74;98808.78;2092384;28;45984;-49
2021/10/03 02:59:59;;;;;;;;;8.00;7.00;;;;;19.36;71.03;98808.78;2092503;28;46033;-50
2021/10/03 03:01:00;;;;;;;;;7.33;7.00;;;;;19.35;70.62;98806.22;2091539;28;47239;-47
2021/10/03 03:02:00;;;;;;;;;4.33;4.33;;;;;19.36;70.95;98802.56;2091692;28;46875;-48
2021/10/03 03:03:02;;;;;;;;;6.00;5.00;;;;;19.36;70.71;98802.56;2092411;28;47117;-48
2021/10/03 03:04:02;;;;;;;;;5.75;5.75;;;;;19.34;70.97;98800.00;2092092;28;47231;-50
2021/10/03 03:05:06;;;;;;;;;5.67;5.67;;;;;19.35;70.60;98796.31;2083175;28;47346;-48
2021/10/03 03:06:07;;;;;;;;;9.00;7.00;;;;;19.34;70.48;98800.00;2083955;28;47409;-49
2021/10/03 03:07:08;;;;;;;;;9.25;7.50;;;;;19.35;71.02;98796.31;2091961;28;45655;-48
2021/10/03 03:08:08;;;;;;;;;6.33;6.33;;;;;19.36;70.94;98797.16;2092454;28;47109;-49
2021/10/03 03:09:09;;;;;;;;;7.00;7.00;;;;;19.36;70.98;98805.25;2092040;28;47001;-49
2021/10/03 03:10:09;;;;;;;;;5.33;5.33;;;;;19.36;70.95;98797.16;2092465;28;47410;-50
2021/10/03 03:11:10;;;;;;;;;6.33;6.33;;;;;19.36;70.62;98795.34;2092017;28;48107;-49
2021/10/03 03:12:10;;;;;;;;;8.00;6.67;;;;;19.36;70.74;98797.16;2092338;28;47412;-49
2021/10/03 03:13:11;;;;;;;;;4.00;4.00;;;;;19.35;70.52;98796.31;2091930;28;47175;-47
2021/10/03 03:14:12;;;;;;;;;5.33;5.33;;;;;19.35;70.70;98804.38;2092435;28;47042;-49
2021/10/03 03:15:13;;;;;;;;;7.50;7.00;;;;;19.35;70.71;98804.38;2091201;28;47841;-48
2021/10/03 03:16:13;;;;;;;;;5.67;5.67;;;;;19.35;70.84;98796.31;2091798;28;45566;-48
2021/10/03 03:17:17;;;;;;;;;7.00;7.00;;;;;19.36;70.93;98802.56;2091806;28;47544;-47
2021/10/03 03:18:17;;;;;;;;;4.00;4.00;;;;;19.35;70.80;98796.31;2092310;28;47449;-45
2021/10/03 03:19:19;;;;;;;;;7.00;5.67;;;;;19.36;70.68;98784.56;2091902;28;47179;-47
2021/10/03 03:20:19;;;;;;;;;7.00;7.00;;;;;19.36;70.72;98791.78;2092027;28;48202;-46
2021/10/03 03:21:20;;;;;;;;;5.67;5.67;;;;;19.35;70.94;98785.56;2091172;28;47083;-49
2021/10/03 03:22:21;;;;;;;;;6.00;5.33;;;;;19.35;70.53;98790.94;2091656;28;47798;-49
2021/10/03 03:23:21;;;;;;;;;7.33;7.33;;;;;19.36;70.59;98791.78;2091827;28;45297;-49
2021/10/03 03:24:22;;;;;;;;;6.00;6.00;;;;;19.35;70.76;98780.19;2092266;28;46996;-51
2021/10/03 03:25:22;;;;;;;;;6.00;6.00;;;;;19.35;70.69;98776.66;2091670;28;47302;-48
2021/10/03 03:26:23;;;;;;;;;5.33;5.00;;;;;19.35;70.77;98771.25;2091562;28;47136;-46
2021/10/03 03:27:23;;;;;;;;;5.00;5.00;;;;;19.35;70.79;98774.81;2091336;28;47059;-45
2021/10/03 03:28:24;;;;;;;;;6.00;6.00;;;;;19.36;70.53;98775.66;2092133;28;47993;-45
2021/10/03 03:29:24;;;;;;;;;6.67;6.00;;;;;19.35;70.78;98774.81;2091852;28;47310;-46
2021/10/03 03:30:25;;;;;;;;;5.33;5.00;;;;;19.35;70.84;98772.13;2092080;28;48341;-46
2021/10/03 03:31:26;;;;;;;;;5.67;5.67;;;;;19.36;70.39;98764.91;2091953;28;47282;-46
2021/10/03 03:32:26;;;;;;;;;6.00;6.00;;;;;19.35;70.61;98764.03;2091435;28;48383;-46
2021/10/03 03:33:27;;;;;;;;;7.33;7.00;;;;;19.35;70.51;98771.25;2091177;28;48151;-47
2021/10/03 03:34:27;;;;;;;;;7.00;7.00;;;;;19.35;70.27;98761.34;2091860;28;48193;-47
2021/10/03 03:35:28;;;;;;;;;6.00;4.00;;;;;19.36;70.23;98754.13;2091928;28;47828;-49
2021/10/03 03:36:29;;;;;;;;;6.00;6.00;;;;;19.35;70.12;98765.88;2091950;28;48326;-48
2021/10/03 03:37:29;;;;;;;;;4.33;4.33;;;;;19.35;70.37;98757.81;2089535;28;47158;-50
2021/10/03 03:38:35;;;;;;;;;7.00;7.00;;;;;19.33;70.24;98763.34;2088611;28;46069;-48
2021/10/03 03:39:36;;;;;;;;;9.25;8.75;;;;;19.33;70.14;98765.19;2092056;28;47483;-48
2021/10/03 03:40:37;;;;;;;;;5.67;5.67;;;;;19.32;69.95;98758.94;2092058;28;47105;-45
2021/10/03 03:41:37;;;;;;;;;8.75;8.00;;;;;19.31;70.16;98770.69;2092109;28;46021;-48
2021/10/03 03:42:38;;;;;;;;;4.33;4.33;;;;;19.32;70.46;98763.47;2091173;28;45472;-47
2021/10/03 03:43:41;;;;;;;;;7.50;6.00;;;;;19.31;70.09;98765.31;2091303;28;47298;-48
2021/10/03 03:44:41;;;;;;;;;7.25;6.00;;;;;19.31;69.92;98764.44;2092241;28;48425;-46
2021/10/03 03:45:42;;;;;;;;;4.00;3.67;;;;;19.30;70.14;98763.59;2093366;28;48222;-47
2021/10/03 03:46:42;;;;;;;;;7.67;6.67;;;;;19.31;70.24;98761.75;2092196;28;48256;-46
2021/10/03 03:47:43;;;;;;;;;7.67;7.67;;;;;19.31;70.01;98764.44;2091953;28;48211;-46
2021/10/03 03:48:43;;;;;;;;;3.67;3.67;;;;;19.32;70.43;98752.72;2092155;28;47864;-48
2021/10/03 03:49:44;;;;;;;;;6.00;6.00;;;;;19.32;70.22;98761.63;2093529;28;48228;-47
2021/10/03 03:50:44;;;;;;;;;6.00;6.00;;;;;19.32;70.40;98761.63;2095017;27;47892;-49
2021/10/03 03:51:45;;;;;;;;;6.00;6.00;;;;;19.33;70.19;98771.41;2091230;28;47757;-49
2021/10/03 03:52:45;;;;;;;;;7.33;6.67;;;;;19.32;70.14;98758.94;2091361;28;45420;-47
2021/10/03 03:53:46;;;;;;;;;5.67;5.67;;;;;19.33;70.22;98766.03;2092035;28;47209;-48
2021/10/03 03:54:46;;;;;;;;;7.00;7.00;;;;;19.33;70.00;98765.19;2092103;28;48171;-51
2021/10/03 03:55:47;;;;;;;;;5.00;5.00;;;;;19.34;69.78;98766.88;2091696;28;47319;-46
2021/10/03 03:56:48;;;;;;;;;6.00;6.00;;;;;19.33;70.29;98762.50;2091909;28;47343;-50
2021/10/03 03:57:50;;;;;;;;;5.00;5.00;;;;;19.32;70.05;98758.09;2091992;28;47352;-50
2021/10/03 03:58:51;;;;;;;;;5.75;5.75;;;;;19.32;69.95;98763.47;2091672;28;47321;-49
2021/10/03 03:59:51;;;;;;;;;7.00;7.00;;;;;19.32;70.54;98755.41;2091165;28;48008;-48
2021/10/03 04:00:52;;;;;;;;;6.33;6.33;;;;;19.32;70.38;98763.47;2091638;28;47137;-50
2021/10/03 04:01:53;;;;;;;;;6.00;5.00;;;;;19.33;70.13;98765.19;2091876;28;48110;-51
2021/10/03 04:02:53;;;;;;;;;4.25;4.25;;;;;19.32;70.17;98756.25;2091833;28;48537;-48
2021/10/03 04:03:54;;;;;;;;;6.00;6.00;;;;;19.31;70.10;98759.94;2091955;28;47410;-51
2021/10/03 04:04:54;;;;;;;;;5.67;5.67;;;;;19.31;69.89;98770.69;2091390;28;47510;-48
2021/10/03 04:05:55;;;;;;;;;6.00;6.00;;;;;19.30;70.15;98765.41;2082651;28;48659;-49
2021/10/03 04:06:55;;;;;;;;;7.67;7.67;;;;;19.30;69.89;98757.34;2091329;28;46409;-51
2021/10/03 04:07:56;;;;;;;;;6.33;6.33;;;;;19.29;70.15;98777.16;2091582;28;47110;-49
2021/10/03 04:08:56;;;;;;;;;4.33;4.33;;;;;19.28;70.12;98765.56;2087431;28;48277;-48
2021/10/03 04:09:57;;;;;;;;;6.33;6.33;;;;;19.28;69.92;98754.81;2090482;28;47188;-51
2021/10/03 04:10:57;;;;;;;;;5.00;5.00;;;;;19.27;70.12;98765.69;2092058;28;46229;-49
2021/10/03 04:11:58;;;;;;;;;6.33;6.33;;;;;19.27;70.21;98769.25;2093348;28;47710;-51
2021/10/03 04:12:59;;;;;;;;;7.00;7.00;;;;;19.28;70.05;98770.94;2092117;28;47282;-51
2021/10/03 04:14:00;;;;;;;;;6.00;6.00;;;;;19.29;70.18;98767.25;2091723;28;47236;-50
2021/10/03 04:15:01;;;;;;;;;6.00;6.00;;;;;19.29;70.00;98763.72;2091926;28;48275;-49
2021/10/03 04:16:01;;;;;;;;;6.67;6.67;;;;;19.28;69.82;98762.88;2091708;28;47118;-51
2021/10/03 04:17:02;;;;;;;;;7.00;6.67;;;;;19.28;70.12;98773.63;2093481;28;47909;-50
2021/10/03 04:18:02;;;;;;;;;6.00;6.00;;;;;19.28;70.03;98770.94;2082789;28;47055;-50
2021/10/03 04:19:03;;;;;;;;;7.67;7.67;;;;;19.28;70.01;98779.00;2094777;28;47446;-49
2021/10/03 04:20:05;;;;;;;;;9.00;7.00;;;;;19.28;70.02;98770.09;2096717;28;47696;-52
2021/10/03 04:21:06;;;;;;;;;5.25;5.00;;;;;19.28;70.01;98768.25;2091066;28;48375;-50
2021/10/03 04:22:07;;;;;;;;;7.33;6.67;;;;;19.28;70.12;98770.09;2091467;28;47233;-50
2021/10/03 04:23:08;;;;;;;;;7.50;6.50;;;;;19.27;70.33;98771.94;2091560;28;47592;-52
2021/10/03 04:24:09;;;;;;;;;6.00;6.00;;;;;19.27;70.22;98771.09;2091827;28;48264;-51
2021/10/03 04:25:10;;;;;;;;;5.00;5.00;;;;;19.28;70.23;98770.09;2091708;28;47378;-50
2021/10/03 04:26:10;;;;;;;;;6.00;6.00;;;;;19.27;70.09;98771.94;2091814;28;46095;-51
2021/10/03 04:27:11;;;;;;;;;5.67;5.67;;;;;19.27;70.09;98773.78;2091667;28;46146;-50
2021/10/03 04:28:11;;;;;;;;;7.67;7.67;;;;;19.28;70.22;98786.22;2088174;28;47890;-53
2021/10/03 04:29:12;;;;;;;;;7.33;6.33;;;;;19.27;70.16;98774.63;2082759;28;48496;-50
2021/10/03 04:30:12;;;;;;;;;5.00;5.00;;;;;19.29;70.12;98777.16;2089648;28;46879;-51
2021/10/03 04:31:13;;;;;;;;;10.33;10.33;;;;;19.28;70.17;98770.09;2091685;28;48269;-53
2021/10/03 04:32:13;;;;;;;;;7.00;7.00;;;;;19.27;70.13;98771.09;2091203;28;48241;-51
2021/10/03 04:33:14;;;;;;;;;8.33;6.67;;;;;19.28;70.00;98786.22;2091025;28;47820;-52
2021/10/03 04:34:14;;;;;;;;;8.00;8.00;;;;;19.27;70.34;98777.31;2091767;28;47498;-47
2021/10/03 04:35:15;;;;;;;;;8.00;8.00;;;;;19.27;70.09;98771.94;2091630;28;47778;-51
2021/10/03 04:36:15;;;;;;;;;7.33;6.33;;;;;19.27;70.18;98781.84;2091588;28;45508;-49
2021/10/03 04:37:16;;;;;;;;;6.67;6.67;;;;;19.26;70.27;98785.50;2091448;28;47164;-52
2021/10/03 04:38:16;;;;;;;;;8.00;6.00;;;;;19.25;69.91;98781.13;2091532;28;47530;-50
2021/10/03 04:39:17;;;;;;;;;7.33;7.33;;;;;19.24;69.93;98791.03;2085373;28;45336;-52
2021/10/03 04:40:17;;;;;;;;;8.00;8.00;;;;;19.24;70.03;98774.06;2091798;28;47911;-51
2021/10/03 04:41:18;;;;;;;;;7.67;7.67;;;;;19.23;70.17;98769.66;2090912;28;47195;-50
2021/10/03 04:42:20;;;;;;;;;8.00;8.00;;;;;19.23;70.20;98772.34;2090864;28;47660;-52
2021/10/03 04:43:20;;;;;;;;;8.75;7.25;;;;;19.23;70.46;98773.19;2091472;28;47230;-46
2021/10/03 04:44:20;;;;;;;;;8.00;6.33;;;;;19.23;70.60;98777.72;2091135;28;47099;-46
2021/10/03 04:45:21;;;;;;;;;7.00;6.00;;;;;19.23;70.36;98773.19;2091158;28;47269;-48
2021/10/03 04:46:22;;;;;;;;;10.00;8.00;;;;;19.23;70.36;98775.88;2093411;28;48097;-47
2021/10/03 04:47:22;;;;;;;;;8.00;8.00;;;;;19.24;70.65;98768.66;2091335;28;46961;-47